Airfield :
LOGIN :

Register | Disclaimer

   EN    FR    IT 

 










Legend :    VFR   Marginal VFR   IFR   Intensive IFR   Very Intensive IFR
Visi :
Ceiling :
>= 8 km
>= 3000ft
5 to 8 km
1000 to 3000 ft
1500m to 5 km
500 to 1000 ft
800 to 1500m
200 to 500 ft
< 800m
< 200 ft
Symbols :   Thunderstorms  Fog  Heavy snow  Heavy precipitations  Wind > 20 kt
SIGMETs :     Misc.  Thunderstorms  Icing  Turbulence  Mountain Waves  Volcanic Ashes







- Airport Elevation : 1649 ft
- IATA code : HHN


EDFH - Frankfurt-Hahn Rhineland-Palatinate

CURRENT METAR :
  • 140350Z 26020G31KT 9000 BKN012 02/01 Q0992

EXPIRED METARs :
  • 140320Z 26018G29KT 8000 BKN008 02/02 Q0991 RERASN
  • 140250Z 22017G30KT 190V250 4000 SNRA BKN005 02/02 Q0991
  • 140220Z 21012KT 8000 -SHRA FEW007 BKN017TCU 03/02 Q0991
  • 140150Z 24012KT 9999 SCT019 03/02 Q0991
  • 140120Z 25014KT 9999 FEW011 03/02 Q0992

TAF AMD TAF EDFH
Valid from the 14 at 02:00 until the 15 at 00:00 UTC


140229Z 1402/1424 24015G25KT 9999 SCT005 BKN015
TEMPO 1402/1405 26025G35KT 4000 SHSNRA BKN005 BKN015CB
PROB30
TEMPO 1402/1404 27025G45KT 2000 TSSN BKN002 BKN015CB
TEMPO 1405/1409 26020G40KT BKN010
TEMPO 1409/1424 SHSNRA BKN015CB
PROB30
TEMPO 1409/1420 26020G40KT 3000 TSGS BKN010CB
BECMG 1421/1424 23012KT BKN010
No reported NOTAMs for that airfield.
1 SIGMET reported for the Langen FIR (EDGG) :
 
Severe turbulence
EDGG SIGMET 1 VALID 140200/140500 EDZF
EDGG LANGEN FIR SEV TURB FCST S OF N4930 SFC/5000FT MOV E NC=



MET'MAP, your aeronautical weather chart ! - Copyright ORBIFLY December 2007 - Disclaimer

ORBIFLY MET'MAP TEAM :

Programming & Development : Alexandra Zaïnal
Concept & Development : Baudouin d'Aumeries
Co-Development & Prog : Marc-Olivier Méhu
Technical & hardware support : Manuel Goepfert

Contact : metmap@orbifly.com




SOURCES & CREDITS :

   NOAA